DAL2021 KMIA-KSLC
Flight info
| Callsign | DAL2021 |
|---|---|
| Flight time | 4h 55m |
| Altitude | 36000 |
| Route | GLADZ4 BAGGS Y290 BLVNS Q105 HRV LSU AEX J58 TURNN ADUKE J58 FUZ CDS PNH ALS JNC HELPR PITTT2 |
| Aircraft | A21N/M-SDE2E3FGHIRWXY/LB1 |
Departure
| Time | 2026-05-07 11:14 |
|---|---|
| Airport | Miami International Airport (KMIA) |
Arrival
| Time | 2026-05-07 16:10 |
|---|---|
| Airport | Salt Lake City International Airport (KSLC) |
| Time | Latitude | Longitude | Altitude | Speed | Heading |
|---|---|---|---|---|---|
| 2026-05-07 10:35 | 25.79119 | -80.27607 | 24 ft | 0 kts | 269° |
| 2026-05-07 10:55 | 25.79120 | -80.27588 | 24 ft | 4 kts | 266° |
| 2026-05-07 10:56 | 25.79121 | -80.27564 | 23 ft | 4 kts | 264° |
| 2026-05-07 10:56 | 25.79128 | -80.27541 | 24 ft | 4 kts | 213° |
| 2026-05-07 10:56 | 25.79150 | -80.27538 | 24 ft | 4 kts | 178° |
| 2026-05-07 10:56 | 25.79164 | -80.27538 | 26 ft | 1 kts | 178° |
| 2026-05-07 11:02 | 25.79163 | -80.27538 | 26 ft | 1 kts | 178° |
| 2026-05-07 11:02 | 25.79149 | -80.27538 | 24 ft | 4 kts | 178° |
| 2026-05-07 11:03 | 25.79114 | -80.27536 | 20 ft | 7 kts | 178° |
| 2026-05-07 11:03 | 25.79056 | -80.27534 | 22 ft | 10 kts | 178° |
| 2026-05-07 11:03 | 25.78981 | -80.27536 | 23 ft | 12 kts | 202° |
| 2026-05-07 11:03 | 25.78957 | -80.27621 | 24 ft | 13 kts | 264° |
| 2026-05-07 11:04 | 25.78947 | -80.27721 | 24 ft | 13 kts | 264° |
| 2026-05-07 11:04 | 25.78942 | -80.27827 | 25 ft | 14 kts | 268° |
| 2026-05-07 11:04 | 25.78950 | -80.27940 | 27 ft | 15 kts | 301° |
| 2026-05-07 11:04 | 25.79001 | -80.28046 | 27 ft | 16 kts | 303° |
| 2026-05-07 11:05 | 25.79056 | -80.28155 | 28 ft | 17 kts | 298° |
| 2026-05-07 11:05 | 25.79119 | -80.28264 | 28 ft | 17 kts | 307° |
| 2026-05-07 11:05 | 25.79177 | -80.28377 | 24 ft | 15 kts | 312° |
| 2026-05-07 11:05 | 25.79249 | -80.28458 | 25 ft | 16 kts | 296° |
| 2026-05-07 11:06 | 25.79301 | -80.28567 | 23 ft | 16 kts | 298° |
| 2026-05-07 11:06 | 25.79358 | -80.28677 | 20 ft | 17 kts | 301° |
| 2026-05-07 11:06 | 25.79415 | -80.28790 | 21 ft | 17 kts | 298° |
| 2026-05-07 11:06 | 25.79475 | -80.28907 | 22 ft | 18 kts | 300° |
| 2026-05-07 11:07 | 25.79537 | -80.29027 | 22 ft | 18 kts | 300° |
| 2026-05-07 11:07 | 25.79600 | -80.29151 | 24 ft | 19 kts | 299° |
| 2026-05-07 11:07 | 25.79665 | -80.29279 | 24 ft | 19 kts | 299° |
| 2026-05-07 11:07 | 25.79708 | -80.29365 | 23 ft | 11 kts | 296° |
| 2026-05-07 11:08 | 25.79699 | -80.29445 | 22 ft | 12 kts | 230° |
| 2026-05-07 11:08 | 25.79699 | -80.29534 | 21 ft | 12 kts | 290° |
| 2026-05-07 11:08 | 25.79744 | -80.29619 | 20 ft | 13 kts | 299° |
| 2026-05-07 11:08 | 25.79790 | -80.29707 | 17 ft | 13 kts | 298° |
| 2026-05-07 11:09 | 25.79837 | -80.29801 | 17 ft | 14 kts | 300° |
| 2026-05-07 11:09 | 25.79886 | -80.29897 | 18 ft | 11 kts | 301° |
| 2026-05-07 11:09 | 25.79921 | -80.29966 | 18 ft | 9 kts | 298° |
| 2026-05-07 11:09 | 25.79952 | -80.30028 | 18 ft | 10 kts | 300° |
| 2026-05-07 11:10 | 25.79966 | -80.30053 | 18 ft | 0 kts | 299° |
| 2026-05-07 11:11 | 25.79969 | -80.30059 | 18 ft | 3 kts | 298° |
| 2026-05-07 11:11 | 25.79982 | -80.30086 | 19 ft | 5 kts | 298° |
| 2026-05-07 11:12 | 25.80011 | -80.30126 | 20 ft | 8 kts | 330° |
| 2026-05-07 11:12 | 25.80066 | -80.30108 | 20 ft | 11 kts | 70° |
| 2026-05-07 11:12 | 25.80076 | -80.30023 | 18 ft | 2 kts | 89° |
| 2026-05-07 11:13 | 25.80077 | -80.29983 | 17 ft | 24 kts | 89° |
| 2026-05-07 11:13 | 25.80097 | -80.29511 | 20 ft | 95 kts | 86° |
| 2026-05-07 11:14 | 25.80134 | -80.28544 | 23 ft | 158 kts | 87° |
| 2026-05-07 11:14 | 25.80200 | -80.27161 | 118 ft | 191 kts | 87° |
| 2026-05-07 11:14 | 25.80282 | -80.25684 | 658 ft | 191 kts | 84° |
| 2026-05-07 11:14 | 25.80410 | -80.24233 | 1335 ft | 190 kts | 86° |
| 2026-05-07 11:15 | 25.80477 | -80.22729 | 1799 ft | 201 kts | 88° |
| 2026-05-07 11:15 | 25.80523 | -80.21159 | 2265 ft | 213 kts | 89° |
| 2026-05-07 11:15 | 25.80603 | -80.19463 | 2661 ft | 230 kts | 81° |
| 2026-05-07 11:15 | 25.81150 | -80.17718 | 2961 ft | 250 kts | 57° |
| 2026-05-07 11:16 | 25.82384 | -80.16361 | 3504 ft | 257 kts | 30° |
| 2026-05-07 11:16 | 25.84070 | -80.15748 | 4220 ft | 259 kts | 6° |
| 2026-05-07 11:16 | 25.85887 | -80.15685 | 4993 ft | 261 kts | 0° |
| 2026-05-07 11:16 | 25.87715 | -80.15686 | 5701 ft | 264 kts | 360° |
| 2026-05-07 11:17 | 25.89548 | -80.15764 | 6376 ft | 267 kts | 351° |
| 2026-05-07 11:17 | 25.91341 | -80.16262 | 7007 ft | 269 kts | 342° |
| 2026-05-07 11:17 | 25.93141 | -80.16936 | 7661 ft | 270 kts | 341° |
| 2026-05-07 11:17 | 25.94926 | -80.17603 | 8307 ft | 272 kts | 341° |
| 2026-05-07 11:18 | 25.96683 | -80.18321 | 8938 ft | 273 kts | 334° |
| 2026-05-07 11:18 | 25.98214 | -80.19569 | 9530 ft | 276 kts | 312° |
| 2026-05-07 11:18 | 25.99182 | -80.21416 | 10087 ft | 281 kts | 289° |
| 2026-05-07 11:18 | 25.99533 | -80.23571 | 10609 ft | 285 kts | 278° |
| 2026-05-07 11:19 | 25.99726 | -80.25746 | 11152 ft | 286 kts | 278° |
| 2026-05-07 11:19 | 25.99845 | -80.27981 | 11687 ft | 290 kts | 272° |
| 2026-05-07 11:19 | 25.99834 | -80.29527 | 11908 ft | 299 kts | 271° |
| 2026-05-07 11:19 | 25.99803 | -80.31887 | 12152 ft | 313 kts | 271° |
| 2026-05-07 11:20 | 25.99780 | -80.34372 | 12359 ft | 328 kts | 272° |
| 2026-05-07 11:20 | 25.99765 | -80.36924 | 12560 ft | 342 kts | 272° |
| 2026-05-07 11:20 | 25.99747 | -80.39627 | 12759 ft | 357 kts | 270° |
| 2026-05-07 11:20 | 25.99372 | -80.42447 | 12937 ft | 374 kts | 255° |
| 2026-05-07 11:21 | 25.98264 | -80.45076 | 13116 ft | 391 kts | 238° |
| 2026-05-07 11:21 | 25.96594 | -80.47515 | 13299 ft | 404 kts | 233° |
| 2026-05-07 11:21 | 25.94797 | -80.49971 | 13487 ft | 415 kts | 233° |
| 2026-05-07 11:21 | 25.92974 | -80.52486 | 13672 ft | 424 kts | 233° |
| 2026-05-07 11:22 | 25.91130 | -80.55061 | 14014 ft | 428 kts | 233° |
| 2026-05-07 11:22 | 25.89277 | -80.57663 | 14363 ft | 430 kts | 234° |
| 2026-05-07 11:22 | 25.87414 | -80.60296 | 14737 ft | 433 kts | 234° |
| 2026-05-07 11:22 | 25.85552 | -80.62929 | 15157 ft | 435 kts | 234° |
| 2026-05-07 11:23 | 25.83673 | -80.65583 | 15581 ft | 438 kts | 234° |
| 2026-05-07 11:23 | 25.81783 | -80.68250 | 15978 ft | 441 kts | 234° |
| 2026-05-07 11:23 | 25.79901 | -80.70948 | 16344 ft | 443 kts | 237° |
| 2026-05-07 11:23 | 25.78332 | -80.73881 | 16698 ft | 442 kts | 248° |
| 2026-05-07 11:24 | 25.77284 | -80.77090 | 17059 ft | 441 kts | 256° |
| 2026-05-07 11:24 | 25.76408 | -80.80362 | 17421 ft | 443 kts | 257° |
| 2026-05-07 11:24 | 25.75544 | -80.83648 | 17769 ft | 446 kts | 257° |
| 2026-05-07 11:24 | 25.74670 | -80.86921 | 18110 ft | 448 kts | 257° |
| 2026-05-07 11:25 | 25.73760 | -80.90283 | 18434 ft | 451 kts | 257° |
| 2026-05-07 11:25 | 25.72862 | -80.93580 | 18718 ft | 452 kts | 257° |
| 2026-05-07 11:25 | 25.71949 | -80.96918 | 19033 ft | 454 kts | 256° |
| 2026-05-07 11:25 | 25.71030 | -81.00268 | 19352 ft | 455 kts | 256° |
| 2026-05-07 11:26 | 25.70106 | -81.03635 | 19688 ft | 456 kts | 256° |
| 2026-05-07 11:26 | 25.69176 | -81.07022 | 20015 ft | 457 kts | 256° |
| 2026-05-07 11:26 | 25.68258 | -81.10355 | 20317 ft | 459 kts | 256° |
| 2026-05-07 11:26 | 25.67327 | -81.13756 | 20648 ft | 460 kts | 256° |
| 2026-05-07 11:27 | 25.66405 | -81.17156 | 21018 ft | 461 kts | 257° |
| 2026-05-07 11:27 | 25.65782 | -81.20625 | 21421 ft | 458 kts | 266° |
| 2026-05-07 11:27 | 25.65741 | -81.24137 | 21826 ft | 456 kts | 277° |
| 2026-05-07 11:27 | 25.66292 | -81.27581 | 22196 ft | 454 kts | 288° |
| 2026-05-07 11:28 | 25.67429 | -81.30843 | 22549 ft | 453 kts | 297° |
| 2026-05-07 11:28 | 25.68866 | -81.34007 | 22875 ft | 455 kts | 298° |
| 2026-05-07 11:28 | 25.70297 | -81.37094 | 23183 ft | 457 kts | 298° |
| 2026-05-07 11:28 | 25.71740 | -81.40231 | 23484 ft | 458 kts | 298° |
| 2026-05-07 11:29 | 25.73196 | -81.43386 | 23748 ft | 460 kts | 298° |
| 2026-05-07 11:29 | 25.74650 | -81.46545 | 24063 ft | 459 kts | 298° |
| 2026-05-07 11:29 | 25.76095 | -81.49694 | 24389 ft | 457 kts | 297° |
| 2026-05-07 11:29 | 25.77529 | -81.52838 | 24718 ft | 455 kts | 297° |
| 2026-05-07 11:30 | 25.78952 | -81.55972 | 25035 ft | 454 kts | 297° |
| 2026-05-07 11:30 | 25.80369 | -81.59099 | 25370 ft | 452 kts | 297° |
| 2026-05-07 11:30 | 25.81785 | -81.62226 | 25717 ft | 451 kts | 297° |
| 2026-05-07 11:30 | 25.83186 | -81.65322 | 26049 ft | 449 kts | 297° |
| 2026-05-07 11:31 | 25.84589 | -81.68425 | 26382 ft | 448 kts | 297° |
| 2026-05-07 11:31 | 25.85957 | -81.71456 | 26714 ft | 447 kts | 297° |
| 2026-05-07 11:31 | 25.87353 | -81.74532 | 27047 ft | 445 kts | 298° |
| 2026-05-07 11:31 | 25.88974 | -81.77453 | 27380 ft | 443 kts | 307° |
| 2026-05-07 11:32 | 25.93427 | -81.82130 | 28048 ft | 441 kts | 322° |
| 2026-05-07 11:32 | 25.95895 | -81.84174 | 28379 ft | 440 kts | 322° |
| 2026-05-07 11:32 | 25.98345 | -81.86197 | 28705 ft | 439 kts | 322° |
| 2026-05-07 11:33 | 26.00786 | -81.88229 | 29030 ft | 438 kts | 322° |
| 2026-05-07 11:33 | 26.03217 | -81.90268 | 29362 ft | 437 kts | 321° |
| 2026-05-07 11:33 | 26.05633 | -81.92303 | 29703 ft | 435 kts | 321° |
| 2026-05-07 11:33 | 26.08039 | -81.94333 | 30013 ft | 434 kts | 321° |
| 2026-05-07 11:34 | 26.10450 | -81.96361 | 30282 ft | 433 kts | 321° |
| 2026-05-07 11:34 | 26.12852 | -81.98381 | 30517 ft | 432 kts | 321° |
| 2026-05-07 11:34 | 26.15247 | -82.00400 | 30761 ft | 431 kts | 321° |
| 2026-05-07 11:34 | 26.17604 | -82.02389 | 30992 ft | 431 kts | 321° |
| 2026-05-07 11:35 | 26.19992 | -82.04404 | 31206 ft | 430 kts | 321° |
| 2026-05-07 11:35 | 26.22404 | -82.06443 | 31417 ft | 430 kts | 321° |
| 2026-05-07 11:35 | 26.24760 | -82.08435 | 31619 ft | 430 kts | 321° |
| 2026-05-07 11:35 | 26.27137 | -82.10442 | 31816 ft | 430 kts | 321° |
| 2026-05-07 11:36 | 26.29519 | -82.12459 | 32030 ft | 429 kts | 321° |
| 2026-05-07 11:36 | 26.31872 | -82.14449 | 32229 ft | 428 kts | 321° |
| 2026-05-07 11:36 | 26.34245 | -82.16459 | 32423 ft | 428 kts | 321° |
| 2026-05-07 11:36 | 26.36615 | -82.18468 | 32611 ft | 428 kts | 321° |
| 2026-05-07 11:37 | 26.38982 | -82.20472 | 32787 ft | 428 kts | 321° |
| 2026-05-07 11:37 | 26.41350 | -82.22477 | 32969 ft | 427 kts | 321° |
| 2026-05-07 11:37 | 26.43713 | -82.24483 | 33144 ft | 427 kts | 321° |
| 2026-05-07 11:37 | 26.46083 | -82.26493 | 33304 ft | 427 kts | 321° |
| 2026-05-07 11:38 | 26.48440 | -82.28495 | 33465 ft | 426 kts | 321° |
| 2026-05-07 11:38 | 26.50802 | -82.30504 | 33622 ft | 426 kts | 321° |
| 2026-05-07 11:38 | 26.53160 | -82.32508 | 33786 ft | 426 kts | 321° |
| 2026-05-07 11:38 | 26.55522 | -82.34516 | 33928 ft | 425 kts | 320° |
| 2026-05-07 11:39 | 26.57871 | -82.36517 | 34063 ft | 425 kts | 320° |
| 2026-05-07 11:39 | 26.60218 | -82.38515 | 34183 ft | 425 kts | 320° |
| 2026-05-07 11:39 | 26.62573 | -82.40521 | 34305 ft | 424 kts | 320° |
| 2026-05-07 11:39 | 26.64920 | -82.42521 | 34412 ft | 424 kts | 320° |
| 2026-05-07 11:40 | 26.67271 | -82.44524 | 34511 ft | 424 kts | 320° |
| 2026-05-07 11:40 | 26.71955 | -82.48527 | 34733 ft | 423 kts | 320° |
| 2026-05-07 11:41 | 26.76593 | -82.52489 | 34906 ft | 423 kts | 320° |
| 2026-05-07 11:41 | 26.78914 | -82.54473 | 35014 ft | 423 kts | 320° |
| 2026-05-07 11:41 | 26.81209 | -82.56436 | 35114 ft | 422 kts | 320° |
| 2026-05-07 11:42 | 26.85880 | -82.60426 | 35267 ft | 422 kts | 320° |
| 2026-05-07 11:42 | 26.90541 | -82.64422 | 35433 ft | 422 kts | 320° |
| 2026-05-07 11:43 | 26.95197 | -82.68425 | 35576 ft | 421 kts | 320° |
| 2026-05-07 11:43 | 26.99845 | -82.72419 | 35721 ft | 421 kts | 320° |
| 2026-05-07 11:44 | 27.04497 | -82.76421 | 35848 ft | 420 kts | 319° |
| 2026-05-07 11:44 | 27.09121 | -82.80419 | 35956 ft | 419 kts | 317° |
| 2026-05-07 11:45 | 27.12928 | -82.85290 | 36026 ft | 414 kts | 299° |
| 2026-05-07 11:45 | 27.14915 | -82.91308 | 36066 ft | 414 kts | 283° |
| 2026-05-07 11:46 | 27.16057 | -82.97642 | 36063 ft | 413 kts | 282° |
| 2026-05-07 11:46 | 27.17211 | -83.03944 | 36057 ft | 413 kts | 282° |
| 2026-05-07 11:47 | 27.18392 | -83.10265 | 36056 ft | 414 kts | 282° |
| 2026-05-07 11:47 | 27.19601 | -83.16591 | 36055 ft | 413 kts | 282° |
| 2026-05-07 11:48 | 27.20798 | -83.22895 | 36053 ft | 415 kts | 282° |
| 2026-05-07 11:48 | 27.21976 | -83.29176 | 36054 ft | 414 kts | 282° |
| 2026-05-07 11:49 | 27.23179 | -83.35503 | 36061 ft | 413 kts | 282° |
| 2026-05-07 11:49 | 27.24378 | -83.41821 | 36060 ft | 413 kts | 282° |
| 2026-05-07 11:50 | 27.25567 | -83.48146 | 36062 ft | 413 kts | 282° |
| 2026-05-07 11:50 | 27.26745 | -83.54479 | 36061 ft | 414 kts | 282° |
| 2026-05-07 11:51 | 27.27935 | -83.60793 | 36056 ft | 414 kts | 282° |
| 2026-05-07 11:51 | 27.29125 | -83.67104 | 36055 ft | 414 kts | 282° |
| 2026-05-07 11:52 | 27.30305 | -83.73429 | 36055 ft | 413 kts | 282° |
| 2026-05-07 11:52 | 27.31478 | -83.79765 | 36060 ft | 412 kts | 282° |
| 2026-05-07 11:53 | 27.32645 | -83.86088 | 36059 ft | 413 kts | 282° |
| 2026-05-07 11:53 | 27.33809 | -83.92417 | 36058 ft | 413 kts | 282° |
| 2026-05-07 11:54 | 27.34970 | -83.98739 | 36058 ft | 413 kts | 282° |
| 2026-05-07 11:54 | 27.36130 | -84.05080 | 36054 ft | 413 kts | 282° |
| 2026-05-07 11:55 | 27.37286 | -84.11362 | 36064 ft | 413 kts | 282° |
| 2026-05-07 11:55 | 27.38434 | -84.17674 | 36057 ft | 413 kts | 281° |
| 2026-05-07 11:56 | 27.39588 | -84.24004 | 36055 ft | 413 kts | 281° |
| 2026-05-07 11:56 | 27.40732 | -84.30309 | 36054 ft | 413 kts | 281° |
| 2026-05-07 11:57 | 27.41877 | -84.36639 | 36055 ft | 413 kts | 281° |
| 2026-05-07 11:57 | 27.43018 | -84.42963 | 36055 ft | 413 kts | 281° |
| 2026-05-07 11:58 | 27.44153 | -84.49288 | 36054 ft | 413 kts | 281° |
| 2026-05-07 11:58 | 27.45286 | -84.55577 | 36052 ft | 413 kts | 281° |
| 2026-05-07 11:59 | 27.46416 | -84.61909 | 36057 ft | 412 kts | 281° |
| 2026-05-07 11:59 | 27.47547 | -84.68233 | 36047 ft | 412 kts | 281° |
| 2026-05-07 12:00 | 27.48671 | -84.74547 | 36053 ft | 412 kts | 281° |
| 2026-05-07 12:00 | 27.49793 | -84.80880 | 36046 ft | 411 kts | 281° |
| 2026-05-07 12:01 | 27.50915 | -84.87210 | 36047 ft | 411 kts | 281° |
| 2026-05-07 12:01 | 27.51834 | -84.92430 | 36049 ft | 411 kts | 281° |
| 2026-05-07 12:02 | 27.53129 | -84.99780 | 36045 ft | 411 kts | 281° |
| 2026-05-07 12:02 | 27.54058 | -85.05087 | 36047 ft | 411 kts | 280° |
| 2026-05-07 12:03 | 27.55149 | -85.11403 | 36043 ft | 412 kts | 281° |
| 2026-05-07 12:03 | 27.56271 | -85.17735 | 36046 ft | 412 kts | 281° |
| 2026-05-07 12:04 | 27.57363 | -85.24072 | 36044 ft | 412 kts | 280° |
| 2026-05-07 12:04 | 27.58448 | -85.30396 | 36047 ft | 412 kts | 281° |
| 2026-05-07 12:05 | 27.59788 | -85.36660 | 36050 ft | 412 kts | 287° |
| 2026-05-07 12:05 | 27.61624 | -85.42793 | 36051 ft | 412 kts | 287° |
| 2026-05-07 12:06 | 27.63472 | -85.48929 | 36041 ft | 412 kts | 287° |
| 2026-05-07 12:06 | 27.65314 | -85.55005 | 36038 ft | 412 kts | 287° |
| 2026-05-07 12:07 | 27.67168 | -85.61140 | 36038 ft | 412 kts | 287° |
| 2026-05-07 12:07 | 27.69005 | -85.67279 | 36043 ft | 413 kts | 287° |
| 2026-05-07 12:08 | 27.70833 | -85.73421 | 36042 ft | 412 kts | 287° |
| 2026-05-07 12:08 | 27.72626 | -85.79568 | 36035 ft | 412 kts | 287° |
| 2026-05-07 12:09 | 27.74460 | -85.85709 | 36041 ft | 412 kts | 287° |
| 2026-05-07 12:09 | 27.76297 | -85.91839 | 36041 ft | 412 kts | 287° |
| 2026-05-07 12:10 | 27.78116 | -85.97982 | 36037 ft | 412 kts | 287° |
| 2026-05-07 12:10 | 27.79929 | -86.04131 | 36025 ft | 412 kts | 287° |
| 2026-05-07 12:11 | 27.81739 | -86.10277 | 36035 ft | 412 kts | 287° |
| 2026-05-07 12:11 | 27.83529 | -86.16364 | 36032 ft | 413 kts | 287° |
| 2026-05-07 12:12 | 27.85330 | -86.22504 | 36039 ft | 412 kts | 287° |
| 2026-05-07 12:12 | 27.87126 | -86.28641 | 36036 ft | 411 kts | 287° |
| 2026-05-07 12:13 | 27.88921 | -86.34780 | 36030 ft | 411 kts | 287° |
| 2026-05-07 12:13 | 27.90714 | -86.40927 | 36029 ft | 411 kts | 287° |
| 2026-05-07 12:14 | 27.92499 | -86.47061 | 36019 ft | 410 kts | 287° |
| 2026-05-07 12:14 | 27.94282 | -86.53209 | 36032 ft | 410 kts | 286° |
| 2026-05-07 12:15 | 27.96050 | -86.59301 | 36028 ft | 410 kts | 286° |
| 2026-05-07 12:15 | 27.97827 | -86.65431 | 36030 ft | 410 kts | 286° |
| 2026-05-07 12:16 | 27.99601 | -86.71573 | 36031 ft | 411 kts | 286° |
| 2026-05-07 12:16 | 28.01370 | -86.77697 | 36024 ft | 411 kts | 287° |
| 2026-05-07 12:17 | 28.03205 | -86.83825 | 36017 ft | 410 kts | 287° |
| 2026-05-07 12:17 | 28.05031 | -86.89948 | 36028 ft | 411 kts | 287° |
| 2026-05-07 12:18 | 28.06843 | -86.96043 | 36026 ft | 411 kts | 287° |
| 2026-05-07 12:18 | 28.08661 | -87.02160 | 36026 ft | 411 kts | 287° |
| 2026-05-07 12:19 | 28.10488 | -87.08324 | 36023 ft | 410 kts | 286° |
| 2026-05-07 12:19 | 28.12287 | -87.14415 | 36021 ft | 410 kts | 286° |
| 2026-05-07 12:20 | 28.14093 | -87.20546 | 36020 ft | 410 kts | 286° |
| 2026-05-07 12:20 | 28.15900 | -87.26677 | 36022 ft | 410 kts | 286° |
| 2026-05-07 12:21 | 28.17701 | -87.32803 | 36021 ft | 410 kts | 286° |
| 2026-05-07 12:21 | 28.19483 | -87.38910 | 36021 ft | 410 kts | 286° |
| 2026-05-07 12:22 | 28.21274 | -87.45051 | 36017 ft | 409 kts | 286° |
| 2026-05-07 12:22 | 28.23082 | -87.51183 | 36015 ft | 409 kts | 286° |
| 2026-05-07 12:23 | 28.24867 | -87.57315 | 36014 ft | 409 kts | 286° |
| 2026-05-07 12:23 | 28.26661 | -87.63456 | 36013 ft | 409 kts | 286° |
| 2026-05-07 12:24 | 28.28437 | -87.69556 | 36012 ft | 409 kts | 286° |
| 2026-05-07 12:24 | 28.30193 | -87.75616 | 36009 ft | 409 kts | 285° |
| 2026-05-07 12:25 | 28.31952 | -87.81699 | 36011 ft | 408 kts | 285° |
| 2026-05-07 12:25 | 28.33724 | -87.87846 | 36013 ft | 408 kts | 285° |
| 2026-05-07 12:26 | 28.35498 | -87.93976 | 36013 ft | 409 kts | 285° |
| 2026-05-07 12:26 | 28.37247 | -88.00049 | 36012 ft | 408 kts | 287° |
| 2026-05-07 12:27 | 28.39909 | -88.05789 | 36012 ft | 418 kts | 303° |
| 2026-05-07 12:27 | 28.43725 | -88.10850 | 36012 ft | 419 kts | 307° |
| 2026-05-07 12:28 | 28.47548 | -88.15811 | 36016 ft | 419 kts | 306° |
| 2026-05-07 12:28 | 28.51353 | -88.20839 | 36014 ft | 419 kts | 306° |
| 2026-05-07 12:29 | 28.55141 | -88.25873 | 36014 ft | 418 kts | 305° |
| 2026-05-07 12:29 | 28.58919 | -88.30914 | 36007 ft | 419 kts | 305° |
| 2026-05-07 12:30 | 28.62702 | -88.35949 | 36009 ft | 419 kts | 305° |
| 2026-05-07 12:30 | 28.66459 | -88.40951 | 36007 ft | 418 kts | 305° |
| 2026-05-07 12:31 | 28.70243 | -88.45999 | 36008 ft | 418 kts | 305° |
| 2026-05-07 12:31 | 28.74001 | -88.51035 | 36004 ft | 418 kts | 305° |
| 2026-05-07 12:32 | 28.77769 | -88.56074 | 36006 ft | 418 kts | 305° |
| 2026-05-07 12:32 | 28.81540 | -88.61128 | 36003 ft | 418 kts | 305° |
| 2026-05-07 12:33 | 28.87188 | -88.68705 | 36006 ft | 418 kts | 305° |
| 2026-05-07 12:33 | 28.90957 | -88.73745 | 36002 ft | 418 kts | 305° |
| 2026-05-07 12:34 | 28.94754 | -88.78770 | 36007 ft | 419 kts | 305° |
| 2026-05-07 12:34 | 28.98554 | -88.83807 | 36003 ft | 418 kts | 305° |
| 2026-05-07 12:35 | 29.02338 | -88.88835 | 35999 ft | 418 kts | 305° |
| 2026-05-07 12:35 | 29.06116 | -88.93877 | 35998 ft | 417 kts | 305° |
| 2026-05-07 12:36 | 29.09901 | -88.98908 | 35998 ft | 417 kts | 305° |
| 2026-05-07 12:36 | 29.13681 | -89.03945 | 35997 ft | 417 kts | 304° |
| 2026-05-07 12:37 | 29.17433 | -89.08959 | 35996 ft | 417 kts | 304° |
| 2026-05-07 12:37 | 29.21193 | -89.14002 | 35998 ft | 417 kts | 304° |
| 2026-05-07 12:38 | 29.24962 | -89.19044 | 35997 ft | 417 kts | 304° |
| 2026-05-07 12:38 | 29.28726 | -89.24089 | 35999 ft | 417 kts | 304° |
| 2026-05-07 12:39 | 29.32472 | -89.29157 | 35999 ft | 416 kts | 304° |
| 2026-05-07 12:39 | 29.36230 | -89.34218 | 35998 ft | 416 kts | 304° |
| 2026-05-07 12:40 | 29.39983 | -89.39271 | 35995 ft | 417 kts | 304° |
| 2026-05-07 12:40 | 29.43753 | -89.44306 | 35996 ft | 416 kts | 304° |
| 2026-05-07 12:41 | 29.47487 | -89.49332 | 35993 ft | 415 kts | 304° |
| 2026-05-07 12:41 | 29.51225 | -89.54378 | 35993 ft | 415 kts | 304° |
| 2026-05-07 12:42 | 29.54964 | -89.59436 | 35994 ft | 414 kts | 304° |
| 2026-05-07 12:42 | 29.58669 | -89.64456 | 35989 ft | 414 kts | 304° |
| 2026-05-07 12:43 | 29.62418 | -89.69537 | 35990 ft | 414 kts | 304° |
| 2026-05-07 12:43 | 29.66110 | -89.74558 | 35992 ft | 414 kts | 304° |
| 2026-05-07 12:44 | 29.69826 | -89.79604 | 35990 ft | 414 kts | 303° |
| 2026-05-07 12:44 | 29.73516 | -89.84624 | 35991 ft | 413 kts | 303° |
| 2026-05-07 12:45 | 29.76601 | -89.88829 | 35993 ft | 414 kts | 303° |
| 2026-05-07 12:45 | 29.80312 | -89.93893 | 35993 ft | 414 kts | 303° |
| 2026-05-07 12:46 | 29.84019 | -89.98958 | 35990 ft | 414 kts | 303° |
| 2026-05-07 12:46 | 29.87121 | -90.04441 | 35998 ft | 406 kts | 294° |
| 2026-05-07 12:47 | 29.89915 | -90.10105 | 35991 ft | 406 kts | 294° |
| 2026-05-07 12:47 | 29.92716 | -90.15751 | 35993 ft | 407 kts | 294° |
| 2026-05-07 12:48 | 29.95538 | -90.21429 | 35994 ft | 407 kts | 294° |
| 2026-05-07 12:48 | 29.98350 | -90.27084 | 35993 ft | 407 kts | 294° |
| 2026-05-07 12:49 | 30.01168 | -90.32766 | 35993 ft | 408 kts | 294° |
| 2026-05-07 12:49 | 30.03986 | -90.38460 | 35990 ft | 408 kts | 294° |
| 2026-05-07 12:50 | 30.06809 | -90.44157 | 36008 ft | 408 kts | 294° |
| 2026-05-07 12:50 | 30.09625 | -90.49854 | 36012 ft | 408 kts | 294° |
| 2026-05-07 12:51 | 30.12415 | -90.55508 | 36011 ft | 408 kts | 293° |
| 2026-05-07 12:51 | 30.15219 | -90.61207 | 36006 ft | 408 kts | 293° |
| 2026-05-07 12:52 | 30.18026 | -90.66913 | 36016 ft | 408 kts | 293° |
| 2026-05-07 12:52 | 30.20827 | -90.72617 | 36013 ft | 407 kts | 293° |
| 2026-05-07 12:53 | 30.23613 | -90.78317 | 36021 ft | 408 kts | 292° |
| 2026-05-07 12:53 | 30.26403 | -90.84029 | 36031 ft | 407 kts | 292° |
| 2026-05-07 12:54 | 30.29184 | -90.89725 | 36029 ft | 407 kts | 292° |
| 2026-05-07 12:54 | 30.31967 | -90.95430 | 36034 ft | 407 kts | 292° |
| 2026-05-07 12:55 | 30.34749 | -91.01131 | 36024 ft | 406 kts | 292° |
| 2026-05-07 12:55 | 30.37535 | -91.06816 | 36024 ft | 406 kts | 292° |
| 2026-05-07 12:56 | 30.40304 | -91.12494 | 36028 ft | 405 kts | 292° |
| 2026-05-07 12:56 | 30.43070 | -91.18190 | 36033 ft | 405 kts | 292° |
| 2026-05-07 12:57 | 30.45818 | -91.23873 | 36031 ft | 404 kts | 292° |
| 2026-05-07 12:57 | 30.48629 | -91.29544 | 36028 ft | 408 kts | 296° |
| 2026-05-07 12:58 | 30.52013 | -91.34866 | 36030 ft | 411 kts | 299° |
| 2026-05-07 12:58 | 30.55438 | -91.40128 | 36040 ft | 410 kts | 298° |
| 2026-05-07 12:59 | 30.58885 | -91.45440 | 36047 ft | 409 kts | 298° |
| 2026-05-07 12:59 | 30.62295 | -91.50722 | 36057 ft | 409 kts | 298° |
| 2026-05-07 13:00 | 30.65711 | -91.56008 | 36050 ft | 409 kts | 298° |
| 2026-05-07 13:00 | 30.69113 | -91.61291 | 36051 ft | 408 kts | 298° |
| 2026-05-07 13:01 | 30.72495 | -91.66550 | 36046 ft | 407 kts | 298° |
| 2026-05-07 13:01 | 30.75882 | -91.71823 | 36044 ft | 406 kts | 298° |
| 2026-05-07 13:02 | 30.79266 | -91.77104 | 36045 ft | 406 kts | 298° |
| 2026-05-07 13:02 | 30.82637 | -91.82348 | 36040 ft | 405 kts | 298° |
| 2026-05-07 13:03 | 30.86011 | -91.87616 | 36057 ft | 404 kts | 298° |
| 2026-05-07 13:03 | 30.89368 | -91.92869 | 36066 ft | 403 kts | 298° |
| 2026-05-07 13:04 | 30.92709 | -91.98101 | 36077 ft | 403 kts | 298° |
| 2026-05-07 13:04 | 30.96028 | -92.03308 | 36086 ft | 402 kts | 298° |
| 2026-05-07 13:05 | 30.99378 | -92.08573 | 36092 ft | 401 kts | 298° |
| 2026-05-07 13:05 | 31.02647 | -92.13730 | 36098 ft | 400 kts | 297° |
| 2026-05-07 13:06 | 31.05945 | -92.18953 | 36096 ft | 400 kts | 297° |
| 2026-05-07 13:06 | 31.09264 | -92.24161 | 36084 ft | 399 kts | 297° |
| 2026-05-07 13:07 | 31.12552 | -92.29328 | 36078 ft | 398 kts | 297° |
| 2026-05-07 13:07 | 31.15836 | -92.34523 | 36074 ft | 397 kts | 297° |
| 2026-05-07 13:08 | 31.19108 | -92.39711 | 36087 ft | 396 kts | 297° |
| 2026-05-07 13:08 | 31.22386 | -92.44907 | 36092 ft | 396 kts | 297° |
| 2026-05-07 13:09 | 31.25578 | -92.50160 | 36091 ft | 388 kts | 291° |
| 2026-05-07 13:09 | 31.27830 | -92.55793 | 36092 ft | 380 kts | 285° |
| 2026-05-07 13:10 | 31.29898 | -92.61415 | 36091 ft | 380 kts | 285° |
| 2026-05-07 13:10 | 31.31995 | -92.67071 | 36089 ft | 380 kts | 285° |
| 2026-05-07 13:11 | 31.34095 | -92.72738 | 36092 ft | 380 kts | 285° |
| 2026-05-07 13:11 | 31.36182 | -92.78362 | 36089 ft | 380 kts | 285° |
| 2026-05-07 13:12 | 31.38282 | -92.84029 | 36086 ft | 380 kts | 285° |
| 2026-05-07 13:12 | 31.40396 | -92.89733 | 36086 ft | 380 kts | 285° |
| 2026-05-07 13:13 | 31.42479 | -92.95374 | 36089 ft | 379 kts | 285° |
| 2026-05-07 13:13 | 31.44581 | -93.01086 | 36093 ft | 379 kts | 285° |
| 2026-05-07 13:14 | 31.46642 | -93.06683 | 36098 ft | 379 kts | 285° |
| 2026-05-07 13:14 | 31.48730 | -93.12362 | 36103 ft | 379 kts | 285° |
| 2026-05-07 13:15 | 31.50812 | -93.18034 | 36104 ft | 379 kts | 285° |
| 2026-05-07 13:15 | 31.52892 | -93.23714 | 36107 ft | 379 kts | 285° |
| 2026-05-07 13:16 | 31.54962 | -93.29369 | 36099 ft | 378 kts | 285° |
| 2026-05-07 13:16 | 31.57031 | -93.35042 | 36098 ft | 378 kts | 284° |
| 2026-05-07 13:17 | 31.59090 | -93.40714 | 36092 ft | 378 kts | 284° |
| 2026-05-07 13:17 | 31.61156 | -93.46373 | 36086 ft | 377 kts | 284° |
| 2026-05-07 13:18 | 31.62867 | -93.51084 | 36084 ft | 377 kts | 284° |
| 2026-05-07 13:18 | 31.65174 | -93.57447 | 36097 ft | 376 kts | 284° |
| 2026-05-07 13:19 | 31.67205 | -93.63066 | 36087 ft | 376 kts | 284° |
| 2026-05-07 13:19 | 31.69252 | -93.68748 | 36095 ft | 375 kts | 284° |
| 2026-05-07 13:20 | 31.71275 | -93.74358 | 36094 ft | 375 kts | 284° |
| 2026-05-07 13:20 | 31.73315 | -93.79996 | 36104 ft | 375 kts | 284° |
| 2026-05-07 13:21 | 31.75347 | -93.85623 | 36124 ft | 374 kts | 284° |
| 2026-05-07 13:21 | 31.77385 | -93.91294 | 36132 ft | 374 kts | 284° |
| 2026-05-07 13:22 | 31.79405 | -93.96928 | 36133 ft | 374 kts | 284° |
| 2026-05-07 13:22 | 31.81378 | -94.02440 | 36140 ft | 374 kts | 284° |
| 2026-05-07 13:23 | 31.83392 | -94.08079 | 36136 ft | 374 kts | 284° |
| 2026-05-07 13:23 | 31.85082 | -94.12806 | 36139 ft | 374 kts | 284° |
| 2026-05-07 13:24 | 31.87080 | -94.18412 | 36141 ft | 374 kts | 284° |
| 2026-05-07 13:24 | 31.89082 | -94.24050 | 36144 ft | 374 kts | 284° |
| 2026-05-07 13:25 | 31.91076 | -94.29698 | 36143 ft | 374 kts | 284° |
| 2026-05-07 13:25 | 31.93080 | -94.35349 | 36147 ft | 374 kts | 284° |
| 2026-05-07 13:26 | 31.95082 | -94.40983 | 36143 ft | 374 kts | 284° |
| 2026-05-07 13:26 | 31.96905 | -94.46138 | 36142 ft | 374 kts | 284° |
| 2026-05-07 13:27 | 31.98861 | -94.51687 | 36141 ft | 374 kts | 284° |
| 2026-05-07 13:27 | 32.00852 | -94.57340 | 36150 ft | 374 kts | 284° |
| 2026-05-07 13:28 | 32.02839 | -94.63001 | 36151 ft | 374 kts | 284° |
| 2026-05-07 13:28 | 32.04793 | -94.68576 | 36153 ft | 374 kts | 284° |
| 2026-05-07 13:29 | 32.06776 | -94.74237 | 36160 ft | 374 kts | 283° |
| 2026-05-07 13:29 | 32.08758 | -94.79901 | 36163 ft | 374 kts | 283° |
| 2026-05-07 13:30 | 32.10738 | -94.85575 | 36162 ft | 374 kts | 283° |
| 2026-05-07 13:30 | 32.12712 | -94.91246 | 36166 ft | 374 kts | 283° |
| 2026-05-07 13:31 | 32.14607 | -94.96700 | 36165 ft | 373 kts | 283° |
| 2026-05-07 13:31 | 32.16570 | -95.02365 | 36165 ft | 373 kts | 283° |
| 2026-05-07 13:32 | 32.18543 | -95.08040 | 36160 ft | 373 kts | 283° |
| 2026-05-07 13:32 | 32.20503 | -95.13703 | 36153 ft | 373 kts | 283° |
| 2026-05-07 13:33 | 32.22463 | -95.19376 | 36182 ft | 372 kts | 283° |
| 2026-05-07 13:33 | 32.24417 | -95.25051 | 36175 ft | 372 kts | 283° |
| 2026-05-07 13:34 | 32.27341 | -95.33551 | 36189 ft | 372 kts | 283° |
| 2026-05-07 13:35 | 32.29168 | -95.38867 | 36190 ft | 371 kts | 283° |
| 2026-05-07 13:35 | 32.31117 | -95.44542 | 36187 ft | 371 kts | 283° |
| 2026-05-07 13:36 | 32.33040 | -95.50165 | 36192 ft | 371 kts | 282° |
| 2026-05-07 13:36 | 32.34960 | -95.55796 | 36191 ft | 371 kts | 282° |
| 2026-05-07 13:37 | 32.36889 | -95.61460 | 36183 ft | 370 kts | 282° |
| 2026-05-07 13:37 | 32.38812 | -95.67102 | 36185 ft | 370 kts | 282° |
| 2026-05-07 13:38 | 32.40736 | -95.72750 | 36185 ft | 369 kts | 282° |
| 2026-05-07 13:38 | 32.42651 | -95.78394 | 36181 ft | 369 kts | 282° |
| 2026-05-07 13:39 | 32.44561 | -95.84036 | 36178 ft | 368 kts | 282° |
| 2026-05-07 13:39 | 32.46444 | -95.89611 | 36183 ft | 368 kts | 282° |
| 2026-05-07 13:40 | 32.48333 | -95.95219 | 36184 ft | 368 kts | 282° |
| 2026-05-07 13:40 | 32.50228 | -96.00838 | 36189 ft | 367 kts | 282° |
| 2026-05-07 13:41 | 32.52118 | -96.06452 | 36197 ft | 367 kts | 282° |
| 2026-05-07 13:41 | 32.53997 | -96.12053 | 36203 ft | 366 kts | 282° |
| 2026-05-07 13:42 | 32.55881 | -96.17664 | 36206 ft | 366 kts | 282° |
| 2026-05-07 13:42 | 32.57745 | -96.23236 | 36208 ft | 366 kts | 282° |
| 2026-05-07 13:43 | 32.59629 | -96.28879 | 36209 ft | 365 kts | 282° |
| 2026-05-07 13:43 | 32.61487 | -96.34452 | 36212 ft | 365 kts | 282° |
| 2026-05-07 13:44 | 32.63351 | -96.40056 | 36206 ft | 365 kts | 282° |
| 2026-05-07 13:44 | 32.65211 | -96.45651 | 36218 ft | 365 kts | 282° |
| 2026-05-07 13:45 | 32.67010 | -96.51076 | 36227 ft | 364 kts | 282° |
| 2026-05-07 13:45 | 32.68851 | -96.56637 | 36223 ft | 364 kts | 282° |
| 2026-05-07 13:46 | 32.70699 | -96.62232 | 36224 ft | 364 kts | 282° |
| 2026-05-07 13:46 | 32.72527 | -96.67776 | 36216 ft | 364 kts | 282° |
| 2026-05-07 13:47 | 32.74368 | -96.73366 | 36202 ft | 363 kts | 282° |
| 2026-05-07 13:47 | 32.76203 | -96.78946 | 36212 ft | 363 kts | 282° |
| 2026-05-07 13:48 | 32.78016 | -96.84476 | 36211 ft | 363 kts | 282° |
| 2026-05-07 13:48 | 32.79844 | -96.90064 | 36213 ft | 363 kts | 282° |
| 2026-05-07 13:49 | 32.81671 | -96.95641 | 36212 ft | 363 kts | 282° |
| 2026-05-07 13:49 | 32.83498 | -97.01234 | 36205 ft | 363 kts | 282° |
| 2026-05-07 13:50 | 32.85318 | -97.06822 | 36203 ft | 362 kts | 282° |
| 2026-05-07 13:50 | 32.87138 | -97.12415 | 36200 ft | 362 kts | 282° |
| 2026-05-07 13:51 | 32.89019 | -97.17992 | 36199 ft | 367 kts | 285° |
| 2026-05-07 13:51 | 32.91579 | -97.23346 | 36210 ft | 374 kts | 289° |
| 2026-05-07 13:52 | 32.94224 | -97.28642 | 36209 ft | 373 kts | 289° |
| 2026-05-07 13:52 | 32.96870 | -97.33973 | 36215 ft | 373 kts | 289° |
| 2026-05-07 13:53 | 32.99512 | -97.39304 | 36209 ft | 373 kts | 289° |
| 2026-05-07 13:53 | 33.02138 | -97.44633 | 36212 ft | 373 kts | 289° |
| 2026-05-07 13:54 | 33.04771 | -97.49974 | 36203 ft | 373 kts | 289° |
| 2026-05-07 13:54 | 33.07402 | -97.55317 | 36213 ft | 374 kts | 289° |
| 2026-05-07 13:55 | 33.10025 | -97.60664 | 36221 ft | 373 kts | 289° |
| 2026-05-07 13:55 | 33.12652 | -97.66014 | 36230 ft | 373 kts | 289° |
| 2026-05-07 13:56 | 33.15251 | -97.71331 | 36245 ft | 374 kts | 289° |
| 2026-05-07 13:56 | 33.17879 | -97.76695 | 36255 ft | 374 kts | 289° |
| 2026-05-07 13:57 | 33.20405 | -97.81869 | 36247 ft | 374 kts | 289° |
| 2026-05-07 13:57 | 33.23000 | -97.87198 | 36249 ft | 373 kts | 289° |
| 2026-05-07 13:58 | 33.25613 | -97.92559 | 36252 ft | 374 kts | 289° |
| 2026-05-07 13:58 | 33.28226 | -97.97937 | 36242 ft | 373 kts | 289° |
| 2026-05-07 13:59 | 33.30837 | -98.03306 | 36230 ft | 374 kts | 289° |
| 2026-05-07 13:59 | 33.33443 | -98.08686 | 36216 ft | 374 kts | 289° |
| 2026-05-07 14:00 | 33.36042 | -98.14066 | 36207 ft | 373 kts | 289° |
| 2026-05-07 14:00 | 33.38618 | -98.19438 | 36193 ft | 374 kts | 289° |
| 2026-05-07 14:01 | 33.41210 | -98.24816 | 36209 ft | 373 kts | 289° |
| 2026-05-07 14:01 | 33.43799 | -98.30189 | 36205 ft | 374 kts | 289° |
| 2026-05-07 14:02 | 33.45969 | -98.34670 | 36203 ft | 374 kts | 289° |
| 2026-05-07 14:02 | 33.48567 | -98.40060 | 36205 ft | 373 kts | 289° |
| 2026-05-07 14:03 | 33.51160 | -98.45453 | 36209 ft | 373 kts | 289° |
| 2026-05-07 14:03 | 33.53745 | -98.50848 | 36213 ft | 373 kts | 289° |
| 2026-05-07 14:04 | 33.56329 | -98.56250 | 36221 ft | 373 kts | 289° |
| 2026-05-07 14:04 | 33.58896 | -98.61616 | 36223 ft | 373 kts | 289° |
| 2026-05-07 14:05 | 33.61474 | -98.67021 | 36221 ft | 373 kts | 289° |
| 2026-05-07 14:05 | 33.64027 | -98.72393 | 36223 ft | 373 kts | 289° |
| 2026-05-07 14:06 | 33.66426 | -98.77443 | 36218 ft | 373 kts | 289° |
| 2026-05-07 14:06 | 33.68996 | -98.82856 | 36214 ft | 373 kts | 289° |
| 2026-05-07 14:07 | 33.71568 | -98.88273 | 36212 ft | 374 kts | 289° |
| 2026-05-07 14:07 | 33.74134 | -98.93692 | 36211 ft | 374 kts | 289° |
| 2026-05-07 14:08 | 33.76705 | -98.99129 | 36210 ft | 374 kts | 289° |
| 2026-05-07 14:08 | 33.79271 | -99.04568 | 36210 ft | 374 kts | 289° |
| 2026-05-07 14:09 | 33.81835 | -99.10002 | 36213 ft | 374 kts | 289° |
| 2026-05-07 14:09 | 33.84384 | -99.15425 | 36213 ft | 374 kts | 289° |
| 2026-05-07 14:10 | 33.86943 | -99.20866 | 36212 ft | 374 kts | 289° |
| 2026-05-07 14:10 | 33.89502 | -99.26325 | 36213 ft | 374 kts | 288° |
| 2026-05-07 14:11 | 33.92059 | -99.31783 | 36211 ft | 374 kts | 289° |
| 2026-05-07 14:11 | 33.94596 | -99.37200 | 36215 ft | 374 kts | 289° |
| 2026-05-07 14:12 | 33.97148 | -99.42668 | 36216 ft | 374 kts | 288° |
| 2026-05-07 14:12 | 33.99699 | -99.48142 | 36212 ft | 374 kts | 289° |
| 2026-05-07 14:13 | 34.02246 | -99.53621 | 36215 ft | 374 kts | 288° |
| 2026-05-07 14:13 | 34.04789 | -99.59090 | 36215 ft | 374 kts | 289° |
| 2026-05-07 14:14 | 34.07332 | -99.64566 | 36221 ft | 374 kts | 289° |
| 2026-05-07 14:14 | 34.09588 | -99.69435 | 36213 ft | 375 kts | 289° |
| 2026-05-07 14:15 | 34.12131 | -99.74927 | 36212 ft | 375 kts | 289° |
| 2026-05-07 14:15 | 34.14662 | -99.80422 | 36216 ft | 375 kts | 289° |
| 2026-05-07 14:16 | 34.17205 | -99.85920 | 36213 ft | 375 kts | 289° |
| 2026-05-07 14:16 | 34.19730 | -99.91396 | 36213 ft | 375 kts | 289° |
| 2026-05-07 14:17 | 34.22238 | -99.96918 | 36217 ft | 374 kts | 288° |
| 2026-05-07 14:17 | 34.24745 | -100.02432 | 36224 ft | 375 kts | 289° |
| 2026-05-07 14:18 | 34.27269 | -100.07954 | 36230 ft | 375 kts | 289° |
| 2026-05-07 14:18 | 34.29795 | -100.13476 | 36238 ft | 375 kts | 289° |
| 2026-05-07 14:19 | 34.32317 | -100.18983 | 36243 ft | 376 kts | 289° |
| 2026-05-07 14:19 | 34.34872 | -100.24507 | 36250 ft | 376 kts | 289° |
| 2026-05-07 14:20 | 34.37546 | -100.29973 | 36252 ft | 384 kts | 295° |
| 2026-05-07 14:20 | 34.40784 | -100.35165 | 36254 ft | 387 kts | 296° |
| 2026-05-07 14:21 | 34.44042 | -100.40346 | 36252 ft | 387 kts | 296° |
| 2026-05-07 14:21 | 34.47275 | -100.45555 | 36242 ft | 387 kts | 296° |
| 2026-05-07 14:22 | 34.50520 | -100.50770 | 36237 ft | 387 kts | 296° |
| 2026-05-07 14:22 | 34.53754 | -100.55962 | 36226 ft | 388 kts | 296° |
| 2026-05-07 14:23 | 34.57039 | -100.61217 | 36215 ft | 388 kts | 296° |
| 2026-05-07 14:23 | 34.60207 | -100.66322 | 36202 ft | 388 kts | 296° |
| 2026-05-07 14:24 | 34.63458 | -100.71565 | 36195 ft | 389 kts | 296° |
| 2026-05-07 14:24 | 34.66702 | -100.76813 | 36198 ft | 389 kts | 296° |
| 2026-05-07 14:25 | 34.69954 | -100.82079 | 36199 ft | 389 kts | 296° |
| 2026-05-07 14:25 | 34.73205 | -100.87352 | 36197 ft | 389 kts | 296° |
| 2026-05-07 14:26 | 34.76454 | -100.92624 | 36193 ft | 390 kts | 296° |
| 2026-05-07 14:26 | 34.79692 | -100.97889 | 36198 ft | 390 kts | 296° |
| 2026-05-07 14:27 | 34.82938 | -101.03176 | 36189 ft | 390 kts | 296° |
| 2026-05-07 14:27 | 34.86186 | -101.08470 | 36188 ft | 391 kts | 296° |
| 2026-05-07 14:28 | 34.89435 | -101.13781 | 36197 ft | 391 kts | 296° |
| 2026-05-07 14:28 | 34.92683 | -101.19093 | 36186 ft | 391 kts | 296° |
| 2026-05-07 14:29 | 34.95930 | -101.24412 | 36188 ft | 391 kts | 296° |
| 2026-05-07 14:29 | 34.99159 | -101.29712 | 36188 ft | 391 kts | 296° |
| 2026-05-07 14:30 | 35.02420 | -101.35079 | 36191 ft | 392 kts | 297° |
| 2026-05-07 14:30 | 35.05647 | -101.40391 | 36204 ft | 392 kts | 297° |
| 2026-05-07 14:31 | 35.08917 | -101.45777 | 36219 ft | 392 kts | 297° |
| 2026-05-07 14:31 | 35.12158 | -101.51124 | 36233 ft | 392 kts | 297° |
| 2026-05-07 14:32 | 35.15379 | -101.56454 | 36249 ft | 393 kts | 297° |
| 2026-05-07 14:32 | 35.18623 | -101.61830 | 36264 ft | 393 kts | 297° |
| 2026-05-07 14:33 | 35.21872 | -101.67220 | 36263 ft | 394 kts | 297° |
| 2026-05-07 14:33 | 35.25013 | -101.72689 | 36262 ft | 392 kts | 295° |
| 2026-05-07 14:34 | 35.28033 | -101.78239 | 36266 ft | 392 kts | 295° |
| 2026-05-07 14:34 | 35.31049 | -101.83799 | 36250 ft | 393 kts | 295° |
| 2026-05-07 14:35 | 35.34070 | -101.89371 | 36234 ft | 393 kts | 295° |
| 2026-05-07 14:35 | 35.37098 | -101.94963 | 36218 ft | 393 kts | 295° |
| 2026-05-07 14:36 | 35.40125 | -102.00555 | 36210 ft | 393 kts | 295° |
| 2026-05-07 14:36 | 35.43132 | -102.06127 | 36199 ft | 394 kts | 295° |
| 2026-05-07 14:37 | 35.46157 | -102.11741 | 36196 ft | 395 kts | 295° |
| 2026-05-07 14:37 | 35.50704 | -102.20197 | 36199 ft | 397 kts | 295° |
| 2026-05-07 14:38 | 35.53747 | -102.25868 | 36196 ft | 398 kts | 295° |
| 2026-05-07 14:38 | 35.56789 | -102.31544 | 36196 ft | 398 kts | 296° |
| 2026-05-07 14:39 | 35.59839 | -102.37248 | 36183 ft | 400 kts | 296° |
| 2026-05-07 14:39 | 35.62894 | -102.42973 | 36195 ft | 401 kts | 296° |
| 2026-05-07 14:40 | 35.65958 | -102.48711 | 36182 ft | 402 kts | 296° |
| 2026-05-07 14:40 | 35.69013 | -102.54450 | 36191 ft | 404 kts | 296° |
| 2026-05-07 14:41 | 35.72085 | -102.60233 | 36195 ft | 405 kts | 296° |
| 2026-05-07 14:41 | 35.75172 | -102.66053 | 36196 ft | 407 kts | 297° |
| 2026-05-07 14:42 | 35.78270 | -102.71906 | 36197 ft | 408 kts | 297° |
| 2026-05-07 14:42 | 35.81371 | -102.77769 | 36192 ft | 409 kts | 297° |
| 2026-05-07 14:43 | 35.83954 | -102.82662 | 36188 ft | 410 kts | 297° |
| 2026-05-07 14:43 | 35.87063 | -102.88563 | 36183 ft | 411 kts | 297° |
| 2026-05-07 14:44 | 35.90181 | -102.94483 | 36172 ft | 412 kts | 297° |
| 2026-05-07 14:44 | 35.93298 | -103.00418 | 36175 ft | 412 kts | 297° |
| 2026-05-07 14:45 | 35.96420 | -103.06367 | 36175 ft | 413 kts | 297° |
| 2026-05-07 14:45 | 35.99549 | -103.12347 | 36178 ft | 414 kts | 298° |
| 2026-05-07 14:46 | 36.02660 | -103.18307 | 36179 ft | 415 kts | 298° |
| 2026-05-07 14:46 | 36.05794 | -103.24308 | 36183 ft | 415 kts | 298° |
| 2026-05-07 14:47 | 36.08918 | -103.30307 | 36194 ft | 416 kts | 298° |
| 2026-05-07 14:47 | 36.12027 | -103.36297 | 36194 ft | 417 kts | 298° |
| 2026-05-07 14:48 | 36.15168 | -103.42343 | 36195 ft | 417 kts | 298° |
| 2026-05-07 14:48 | 36.18307 | -103.48401 | 36201 ft | 418 kts | 298° |
| 2026-05-07 14:49 | 36.21442 | -103.54461 | 36201 ft | 418 kts | 298° |
| 2026-05-07 14:49 | 36.24583 | -103.60550 | 36209 ft | 419 kts | 298° |
| 2026-05-07 14:50 | 36.27721 | -103.66639 | 36213 ft | 419 kts | 298° |
| 2026-05-07 14:50 | 36.30856 | -103.72731 | 36220 ft | 419 kts | 298° |
| 2026-05-07 14:51 | 36.33993 | -103.78836 | 36224 ft | 419 kts | 298° |
| 2026-05-07 14:51 | 36.37103 | -103.84903 | 36226 ft | 420 kts | 298° |
| 2026-05-07 14:52 | 36.40250 | -103.91058 | 36228 ft | 420 kts | 298° |
| 2026-05-07 14:52 | 36.43359 | -103.97142 | 36235 ft | 420 kts | 298° |
| 2026-05-07 14:53 | 36.46476 | -104.03264 | 36242 ft | 420 kts | 299° |
| 2026-05-07 14:53 | 36.49598 | -104.09401 | 36254 ft | 420 kts | 298° |
| 2026-05-07 14:54 | 36.52714 | -104.15538 | 36262 ft | 420 kts | 299° |
| 2026-05-07 14:54 | 36.55827 | -104.21686 | 36267 ft | 420 kts | 299° |
| 2026-05-07 14:55 | 36.58947 | -104.27842 | 36265 ft | 420 kts | 299° |
| 2026-05-07 14:55 | 36.62055 | -104.33990 | 36264 ft | 420 kts | 299° |
| 2026-05-07 14:56 | 36.65156 | -104.40150 | 36256 ft | 420 kts | 299° |
| 2026-05-07 14:56 | 36.68258 | -104.46323 | 36253 ft | 420 kts | 299° |
| 2026-05-07 14:57 | 36.71363 | -104.52500 | 36248 ft | 420 kts | 299° |
| 2026-05-07 14:57 | 36.74461 | -104.58673 | 36253 ft | 420 kts | 299° |
| 2026-05-07 14:58 | 36.77555 | -104.64865 | 36256 ft | 421 kts | 299° |
| 2026-05-07 14:58 | 36.80630 | -104.71010 | 36252 ft | 420 kts | 299° |
| 2026-05-07 14:59 | 36.83739 | -104.77239 | 36250 ft | 420 kts | 299° |
| 2026-05-07 14:59 | 36.86798 | -104.83390 | 36243 ft | 420 kts | 300° |
| 2026-05-07 15:00 | 36.89878 | -104.89583 | 36236 ft | 419 kts | 300° |
| 2026-05-07 15:00 | 36.92950 | -104.95783 | 36230 ft | 419 kts | 300° |
| 2026-05-07 15:01 | 36.96013 | -105.01964 | 36232 ft | 419 kts | 300° |
| 2026-05-07 15:01 | 36.99080 | -105.08171 | 36239 ft | 419 kts | 300° |
| 2026-05-07 15:02 | 37.02142 | -105.14383 | 36250 ft | 419 kts | 300° |
| 2026-05-07 15:02 | 37.05192 | -105.20591 | 36262 ft | 419 kts | 300° |
| 2026-05-07 15:03 | 37.08251 | -105.26805 | 36286 ft | 419 kts | 300° |
| 2026-05-07 15:03 | 37.11304 | -105.33035 | 36287 ft | 419 kts | 300° |
| 2026-05-07 15:04 | 37.14353 | -105.39266 | 36298 ft | 419 kts | 300° |
| 2026-05-07 15:04 | 37.17397 | -105.45498 | 36307 ft | 419 kts | 300° |
| 2026-05-07 15:05 | 37.20446 | -105.51744 | 36319 ft | 420 kts | 300° |
| 2026-05-07 15:05 | 37.23490 | -105.57997 | 36328 ft | 420 kts | 300° |
| 2026-05-07 15:06 | 37.26510 | -105.64209 | 36335 ft | 421 kts | 300° |
| 2026-05-07 15:06 | 37.29558 | -105.70495 | 36340 ft | 421 kts | 300° |
| 2026-05-07 15:07 | 37.32595 | -105.76775 | 36339 ft | 421 kts | 300° |
| 2026-05-07 15:07 | 37.35751 | -105.82975 | 36339 ft | 422 kts | 305° |
| 2026-05-07 15:08 | 37.39290 | -105.88888 | 36339 ft | 423 kts | 306° |
| 2026-05-07 15:08 | 37.42844 | -105.94799 | 36339 ft | 424 kts | 306° |
| 2026-05-07 15:09 | 37.46394 | -106.00729 | 36341 ft | 424 kts | 306° |
| 2026-05-07 15:09 | 37.49938 | -106.06667 | 36342 ft | 424 kts | 306° |
| 2026-05-07 15:10 | 37.53477 | -106.12608 | 36342 ft | 424 kts | 306° |
| 2026-05-07 15:10 | 37.57019 | -106.18564 | 36352 ft | 424 kts | 306° |
| 2026-05-07 15:11 | 37.60522 | -106.24465 | 36356 ft | 424 kts | 306° |
| 2026-05-07 15:11 | 37.64059 | -106.30431 | 36360 ft | 424 kts | 306° |
| 2026-05-07 15:12 | 37.67594 | -106.36406 | 36361 ft | 424 kts | 306° |
| 2026-05-07 15:12 | 37.71112 | -106.42369 | 36361 ft | 424 kts | 306° |
| 2026-05-07 15:13 | 37.74628 | -106.48341 | 36357 ft | 423 kts | 306° |
| 2026-05-07 15:13 | 37.78145 | -106.54315 | 36345 ft | 423 kts | 307° |
| 2026-05-07 15:14 | 37.81650 | -106.60280 | 36331 ft | 422 kts | 307° |
| 2026-05-07 15:14 | 37.85118 | -106.66192 | 36312 ft | 421 kts | 307° |
| 2026-05-07 15:15 | 37.88603 | -106.72147 | 36299 ft | 421 kts | 307° |
| 2026-05-07 15:15 | 37.92085 | -106.78106 | 36289 ft | 420 kts | 307° |
| 2026-05-07 15:16 | 37.95526 | -106.84033 | 36287 ft | 419 kts | 307° |
| 2026-05-07 15:16 | 37.99003 | -106.89983 | 36289 ft | 421 kts | 307° |
| 2026-05-07 15:17 | 38.02473 | -106.95951 | 36314 ft | 420 kts | 307° |
| 2026-05-07 15:17 | 38.05946 | -107.01934 | 36316 ft | 420 kts | 307° |
| 2026-05-07 15:18 | 38.09405 | -107.07920 | 36319 ft | 421 kts | 307° |
| 2026-05-07 15:18 | 38.12868 | -107.13908 | 36325 ft | 421 kts | 307° |
| 2026-05-07 15:19 | 38.16326 | -107.19911 | 36324 ft | 420 kts | 307° |
| 2026-05-07 15:19 | 38.19777 | -107.25901 | 36315 ft | 420 kts | 307° |
| 2026-05-07 15:20 | 38.23229 | -107.31918 | 36306 ft | 421 kts | 307° |
| 2026-05-07 15:20 | 38.26680 | -107.37929 | 36304 ft | 420 kts | 307° |
| 2026-05-07 15:21 | 38.30092 | -107.43891 | 36282 ft | 420 kts | 307° |
| 2026-05-07 15:21 | 38.33528 | -107.49898 | 36276 ft | 419 kts | 307° |
| 2026-05-07 15:22 | 38.36959 | -107.55909 | 36281 ft | 419 kts | 307° |
| 2026-05-07 15:22 | 38.40377 | -107.61916 | 36292 ft | 418 kts | 307° |
| 2026-05-07 15:23 | 38.43796 | -107.67930 | 36303 ft | 418 kts | 307° |
| 2026-05-07 15:23 | 38.47206 | -107.73949 | 36315 ft | 418 kts | 307° |
| 2026-05-07 15:24 | 38.50612 | -107.79955 | 36330 ft | 418 kts | 307° |
| 2026-05-07 15:24 | 38.54010 | -107.85976 | 36332 ft | 417 kts | 307° |
| 2026-05-07 15:25 | 38.57403 | -107.91979 | 36332 ft | 417 kts | 307° |
| 2026-05-07 15:25 | 38.60219 | -107.96975 | 36323 ft | 417 kts | 307° |
| 2026-05-07 15:26 | 38.63603 | -108.02989 | 36306 ft | 417 kts | 307° |
| 2026-05-07 15:26 | 38.67536 | -108.09997 | 36321 ft | 417 kts | 307° |
| 2026-05-07 15:27 | 38.70366 | -108.15059 | 36322 ft | 417 kts | 307° |
| 2026-05-07 15:27 | 38.73717 | -108.21053 | 36315 ft | 417 kts | 307° |
| 2026-05-07 15:28 | 38.77085 | -108.27090 | 36302 ft | 416 kts | 307° |
| 2026-05-07 15:28 | 38.80451 | -108.33131 | 36281 ft | 416 kts | 307° |
| 2026-05-07 15:29 | 38.83811 | -108.39184 | 36252 ft | 417 kts | 307° |
| 2026-05-07 15:29 | 38.87173 | -108.45236 | 36241 ft | 417 kts | 307° |
| 2026-05-07 15:30 | 38.90536 | -108.51306 | 36250 ft | 417 kts | 307° |
| 2026-05-07 15:30 | 38.93873 | -108.57390 | 36260 ft | 416 kts | 307° |
| 2026-05-07 15:31 | 38.97205 | -108.63447 | 36261 ft | 416 kts | 307° |
| 2026-05-07 15:31 | 39.00567 | -108.69516 | 36259 ft | 416 kts | 307° |
| 2026-05-07 15:32 | 39.03905 | -108.75582 | 36250 ft | 415 kts | 307° |
| 2026-05-07 15:32 | 39.06997 | -108.81881 | 36235 ft | 417 kts | 301° |
| 2026-05-07 15:33 | 39.09672 | -108.88504 | 36222 ft | 417 kts | 300° |
| 2026-05-07 15:33 | 39.12345 | -108.95140 | 36199 ft | 417 kts | 300° |
| 2026-05-07 15:34 | 39.15018 | -109.01762 | 36185 ft | 416 kts | 300° |
| 2026-05-07 15:34 | 39.17674 | -109.08356 | 36199 ft | 416 kts | 300° |
| 2026-05-07 15:35 | 39.20340 | -109.14986 | 36196 ft | 417 kts | 301° |
| 2026-05-07 15:35 | 39.23025 | -109.21612 | 36192 ft | 416 kts | 301° |
| 2026-05-07 15:36 | 39.25698 | -109.28228 | 36186 ft | 417 kts | 301° |
| 2026-05-07 15:36 | 39.28354 | -109.34876 | 36176 ft | 417 kts | 301° |
| 2026-05-07 15:37 | 39.31008 | -109.41531 | 36172 ft | 417 kts | 301° |
| 2026-05-07 15:37 | 39.33658 | -109.48189 | 36163 ft | 416 kts | 301° |
| 2026-05-07 15:38 | 39.36285 | -109.54810 | 36166 ft | 416 kts | 301° |
| 2026-05-07 15:38 | 39.38926 | -109.61470 | 36163 ft | 416 kts | 301° |
| 2026-05-07 15:39 | 39.41563 | -109.68140 | 36147 ft | 415 kts | 300° |
| 2026-05-07 15:39 | 39.44186 | -109.74803 | 36142 ft | 415 kts | 300° |
| 2026-05-07 15:40 | 39.46810 | -109.81467 | 36143 ft | 415 kts | 301° |
| 2026-05-07 15:40 | 39.49423 | -109.88117 | 36134 ft | 414 kts | 300° |
| 2026-05-07 15:41 | 39.52024 | -109.94755 | 36129 ft | 413 kts | 300° |
| 2026-05-07 15:41 | 39.54621 | -110.01390 | 36131 ft | 412 kts | 301° |
| 2026-05-07 15:42 | 39.57212 | -110.08046 | 36161 ft | 413 kts | 300° |
| 2026-05-07 15:42 | 39.59785 | -110.14658 | 36152 ft | 408 kts | 301° |
| 2026-05-07 15:43 | 39.62317 | -110.21164 | 36157 ft | 405 kts | 301° |
| 2026-05-07 15:43 | 39.64857 | -110.27716 | 36152 ft | 403 kts | 301° |
| 2026-05-07 15:44 | 39.67349 | -110.34166 | 36155 ft | 402 kts | 301° |
| 2026-05-07 15:44 | 39.69889 | -110.40731 | 36162 ft | 409 kts | 301° |
| 2026-05-07 15:45 | 39.71157 | -110.44021 | 35818 ft | 408 kts | 301° |
| 2026-05-07 15:45 | 39.72430 | -110.47327 | 35541 ft | 410 kts | 300° |
| 2026-05-07 15:45 | 39.73709 | -110.50654 | 35291 ft | 411 kts | 300° |
| 2026-05-07 15:45 | 39.74982 | -110.53978 | 35049 ft | 412 kts | 300° |
| 2026-05-07 15:46 | 39.77530 | -110.60629 | 34567 ft | 413 kts | 300° |
| 2026-05-07 15:46 | 39.78799 | -110.63942 | 34333 ft | 414 kts | 300° |
| 2026-05-07 15:46 | 39.80083 | -110.67306 | 34087 ft | 415 kts | 300° |
| 2026-05-07 15:47 | 39.81382 | -110.70704 | 33820 ft | 415 kts | 300° |
| 2026-05-07 15:47 | 39.82657 | -110.74043 | 33550 ft | 416 kts | 300° |
| 2026-05-07 15:47 | 39.83943 | -110.77419 | 33289 ft | 417 kts | 300° |
| 2026-05-07 15:47 | 39.85228 | -110.80807 | 33020 ft | 418 kts | 300° |
| 2026-05-07 15:48 | 39.86519 | -110.84202 | 32761 ft | 419 kts | 300° |
| 2026-05-07 15:48 | 39.87815 | -110.87614 | 32364 ft | 418 kts | 299° |
| 2026-05-07 15:48 | 39.89091 | -110.90995 | 31741 ft | 416 kts | 299° |
| 2026-05-07 15:48 | 39.90371 | -110.94370 | 31033 ft | 415 kts | 299° |
| 2026-05-07 15:49 | 39.91651 | -110.97746 | 30319 ft | 415 kts | 299° |
| 2026-05-07 15:49 | 39.92923 | -111.01130 | 29460 ft | 415 kts | 298° |
| 2026-05-07 15:49 | 39.94196 | -111.04500 | 28630 ft | 415 kts | 298° |
| 2026-05-07 15:49 | 39.95457 | -111.07838 | 27868 ft | 414 kts | 298° |
| 2026-05-07 15:50 | 39.96743 | -111.11241 | 27063 ft | 413 kts | 298° |
| 2026-05-07 15:50 | 39.97996 | -111.14560 | 26293 ft | 412 kts | 298° |
| 2026-05-07 15:50 | 39.99254 | -111.17905 | 25474 ft | 412 kts | 298° |
| 2026-05-07 15:50 | 40.00518 | -111.21276 | 24736 ft | 414 kts | 298° |
| 2026-05-07 15:51 | 40.01785 | -111.24655 | 24043 ft | 416 kts | 298° |
| 2026-05-07 15:51 | 40.03047 | -111.28029 | 23382 ft | 417 kts | 298° |
| 2026-05-07 15:51 | 40.04308 | -111.31410 | 22669 ft | 413 kts | 297° |
| 2026-05-07 15:51 | 40.05570 | -111.34787 | 22209 ft | 419 kts | 297° |
| 2026-05-07 15:52 | 40.06877 | -111.38278 | 21865 ft | 434 kts | 297° |
| 2026-05-07 15:52 | 40.08191 | -111.41807 | 21449 ft | 426 kts | 297° |
| 2026-05-07 15:52 | 40.09472 | -111.45251 | 20896 ft | 417 kts | 297° |
| 2026-05-07 15:52 | 40.10730 | -111.48629 | 20326 ft | 409 kts | 297° |
| 2026-05-07 15:53 | 40.11954 | -111.51932 | 19777 ft | 401 kts | 297° |
| 2026-05-07 15:53 | 40.13163 | -111.55197 | 19205 ft | 396 kts | 297° |
| 2026-05-07 15:53 | 40.14340 | -111.58374 | 18843 ft | 382 kts | 297° |
| 2026-05-07 15:53 | 40.15473 | -111.61434 | 18576 ft | 367 kts | 297° |
| 2026-05-07 15:54 | 40.16560 | -111.64377 | 18359 ft | 351 kts | 297° |
| 2026-05-07 15:54 | 40.17600 | -111.67192 | 18177 ft | 336 kts | 297° |
| 2026-05-07 15:54 | 40.18615 | -111.69937 | 18009 ft | 336 kts | 297° |
| 2026-05-07 15:54 | 40.19631 | -111.72688 | 17860 ft | 335 kts | 297° |
| 2026-05-07 15:55 | 40.20645 | -111.75436 | 17708 ft | 335 kts | 297° |
| 2026-05-07 15:55 | 40.21656 | -111.78180 | 17541 ft | 334 kts | 297° |
| 2026-05-07 15:55 | 40.22662 | -111.80917 | 17351 ft | 333 kts | 297° |
| 2026-05-07 15:55 | 40.23666 | -111.83650 | 17192 ft | 333 kts | 297° |
| 2026-05-07 15:56 | 40.24668 | -111.86377 | 17043 ft | 332 kts | 297° |
| 2026-05-07 15:56 | 40.25663 | -111.89085 | 16959 ft | 332 kts | 297° |
| 2026-05-07 15:56 | 40.26665 | -111.91765 | 16954 ft | 332 kts | 300° |
| 2026-05-07 15:56 | 40.28038 | -111.94227 | 16939 ft | 331 kts | 315° |
| 2026-05-07 15:57 | 40.29845 | -111.95993 | 16598 ft | 325 kts | 328° |
| 2026-05-07 15:57 | 40.31800 | -111.97443 | 16125 ft | 322 kts | 329° |
| 2026-05-07 15:57 | 40.33750 | -111.98861 | 15689 ft | 319 kts | 329° |
| 2026-05-07 15:57 | 40.35680 | -112.00286 | 15385 ft | 323 kts | 329° |
| 2026-05-07 15:58 | 40.37679 | -112.01780 | 15135 ft | 326 kts | 329° |
| 2026-05-07 15:58 | 40.39618 | -112.03238 | 14958 ft | 325 kts | 328° |
| 2026-05-07 15:58 | 40.41621 | -112.04619 | 14932 ft | 326 kts | 336° |
| 2026-05-07 15:58 | 40.43823 | -112.05330 | 14760 ft | 326 kts | 349° |
| 2026-05-07 15:59 | 40.46100 | -112.05631 | 14329 ft | 322 kts | 352° |
| 2026-05-07 15:59 | 40.48287 | -112.05881 | 13885 ft | 319 kts | 352° |
| 2026-05-07 15:59 | 40.50489 | -112.06145 | 13511 ft | 317 kts | 351° |
| 2026-05-07 15:59 | 40.52685 | -112.06423 | 13122 ft | 317 kts | 351° |
| 2026-05-07 16:00 | 40.54472 | -112.06654 | 12828 ft | 316 kts | 351° |
| 2026-05-07 16:00 | 40.56666 | -112.06944 | 12536 ft | 323 kts | 351° |
| 2026-05-07 16:00 | 40.58923 | -112.07244 | 12310 ft | 324 kts | 351° |
| 2026-05-07 16:00 | 40.61167 | -112.07538 | 12064 ft | 322 kts | 351° |
| 2026-05-07 16:01 | 40.63343 | -112.07821 | 11959 ft | 305 kts | 351° |
| 2026-05-07 16:01 | 40.65385 | -112.08068 | 11865 ft | 290 kts | 352° |
| 2026-05-07 16:01 | 40.67377 | -112.08294 | 11513 ft | 285 kts | 351° |
| 2026-05-07 16:01 | 40.69346 | -112.08519 | 11133 ft | 284 kts | 351° |
| 2026-05-07 16:02 | 40.71256 | -112.08738 | 10962 ft | 272 kts | 351° |
| 2026-05-07 16:02 | 40.73083 | -112.08947 | 10939 ft | 256 kts | 351° |
| 2026-05-07 16:02 | 40.74839 | -112.09151 | 10946 ft | 252 kts | 351° |
| 2026-05-07 16:02 | 40.76550 | -112.09355 | 10974 ft | 252 kts | 351° |
| 2026-05-07 16:03 | 40.78283 | -112.09564 | 10983 ft | 252 kts | 351° |
| 2026-05-07 16:03 | 40.80031 | -112.09772 | 10985 ft | 252 kts | 351° |
| 2026-05-07 16:03 | 40.81779 | -112.09979 | 10981 ft | 252 kts | 351° |
| 2026-05-07 16:03 | 40.83527 | -112.10187 | 10984 ft | 252 kts | 351° |
| 2026-05-07 16:04 | 40.85270 | -112.10396 | 10980 ft | 251 kts | 351° |
| 2026-05-07 16:04 | 40.87008 | -112.10601 | 10975 ft | 251 kts | 351° |
| 2026-05-07 16:04 | 40.88732 | -112.10805 | 10757 ft | 247 kts | 351° |
| 2026-05-07 16:04 | 40.90443 | -112.11008 | 10363 ft | 247 kts | 351° |
| 2026-05-07 16:05 | 40.92159 | -112.11213 | 9952 ft | 247 kts | 351° |
| 2026-05-07 16:05 | 40.93875 | -112.11408 | 9512 ft | 249 kts | 354° |
| 2026-05-07 16:05 | 40.95574 | -112.10903 | 9017 ft | 258 kts | 28° |
| 2026-05-07 16:05 | 40.96853 | -112.09222 | 8532 ft | 264 kts | 59° |
| 2026-05-07 16:06 | 40.97420 | -112.06931 | 8114 ft | 265 kts | 86° |
| 2026-05-07 16:06 | 40.97174 | -112.04568 | 7732 ft | 260 kts | 114° |
| 2026-05-07 16:06 | 40.96206 | -112.02619 | 7456 ft | 248 kts | 140° |
| 2026-05-07 16:06 | 40.94794 | -112.01462 | 7233 ft | 232 kts | 165° |
| 2026-05-07 16:07 | 40.93262 | -112.01131 | 7056 ft | 217 kts | 180° |
| 2026-05-07 16:07 | 40.91782 | -112.01074 | 6801 ft | 210 kts | 180° |
| 2026-05-07 16:07 | 40.90331 | -112.00987 | 6441 ft | 208 kts | 178° |
| 2026-05-07 16:07 | 40.88909 | -112.00863 | 6044 ft | 202 kts | 177° |
| 2026-05-07 16:08 | 40.87555 | -112.00725 | 5810 ft | 186 kts | 176° |
| 2026-05-07 16:08 | 40.86384 | -112.00597 | 5534 ft | 154 kts | 175° |
| 2026-05-07 16:08 | 40.85397 | -112.00485 | 5240 ft | 139 kts | 174° |
| 2026-05-07 16:08 | 40.84440 | -112.00409 | 5029 ft | 138 kts | 174° |
| 2026-05-07 16:09 | 40.83494 | -112.00276 | 4818 ft | 137 kts | 170° |
| 2026-05-07 16:09 | 40.82566 | -112.00131 | 4647 ft | 138 kts | 176° |
| 2026-05-07 16:09 | 40.81593 | -112.00037 | 4509 ft | 138 kts | 174° |
| 2026-05-07 16:09 | 40.80655 | -111.99931 | 4297 ft | 136 kts | 173° |
| 2026-05-07 16:10 | 40.80032 | -111.99852 | 4258 ft | 130 kts | 173° |
| 2026-05-07 16:10 | 40.79078 | -111.99730 | 4237 ft | 40 kts | 177° |
| 2026-05-07 16:10 | 40.78956 | -111.99720 | 4238 ft | 25 kts | 175° |
| 2026-05-07 16:10 | 40.78781 | -111.99611 | 4238 ft | 35 kts | 138° |
| 2026-05-07 16:11 | 40.78717 | -111.99488 | 4237 ft | 4 kts | 94° |
| 2026-05-07 16:11 | 40.78717 | -111.99438 | 4237 ft | 7 kts | 89° |
| 2026-05-07 16:11 | 40.78717 | -111.99367 | 4236 ft | 9 kts | 86° |
| 2026-05-07 16:11 | 40.78725 | -111.99276 | 4236 ft | 11 kts | 83° |
| 2026-05-07 16:12 | 40.78727 | -111.99203 | 4237 ft | 12 kts | 88° |
| 2026-05-07 16:12 | 40.78735 | -111.99079 | 4236 ft | 15 kts | 86° |
| 2026-05-07 16:12 | 40.78744 | -111.98937 | 4236 ft | 16 kts | 100° |
| 2026-05-07 16:12 | 40.78721 | -111.98780 | 4236 ft | 18 kts | 97° |
| 2026-05-07 16:13 | 40.78707 | -111.98607 | 4236 ft | 20 kts | 95° |
| 2026-05-07 16:13 | 40.78710 | -111.98416 | 4236 ft | 22 kts | 81° |
| 2026-05-07 16:13 | 40.78725 | -111.98211 | 4236 ft | 23 kts | 86° |
| 2026-05-07 16:13 | 40.78739 | -111.97999 | 4236 ft | 22 kts | 84° |
| 2026-05-07 16:14 | 40.78751 | -111.97821 | 4236 ft | 18 kts | 85° |
| 2026-05-07 16:14 | 40.78753 | -111.97790 | 4236 ft | 0 kts | 87° |
| 2026-05-07 16:14 | 40.78743 | -111.97775 | 4236 ft | 5 kts | 150° |
| 2026-05-07 16:14 | 40.78700 | -111.97772 | 4236 ft | 8 kts | 175° |
| 2026-05-07 16:15 | 40.78639 | -111.97766 | 4236 ft | 10 kts | 176° |
| 2026-05-07 16:15 | 40.78567 | -111.97757 | 4236 ft | 10 kts | 174° |
| 2026-05-07 16:15 | 40.78488 | -111.97748 | 4236 ft | 12 kts | 182° |
| 2026-05-07 16:15 | 40.78436 | -111.97831 | 4236 ft | 15 kts | 277° |
| 2026-05-07 16:16 | 40.78437 | -111.97867 | 4236 ft | 0 kts | 265° |
| 2026-05-07 16:16 | 40.78436 | -111.97878 | 4236 ft | 3 kts | 265° |
| 2026-05-07 16:16 | 40.78436 | -111.97920 | 4236 ft | 6 kts | 270° |
| 2026-05-07 16:16 | 40.78449 | -111.97990 | 4236 ft | 9 kts | 313° |
| 2026-05-07 16:17 | 40.78520 | -111.98009 | 4236 ft | 11 kts | 354° |
| 2026-05-07 16:17 | 40.78533 | -111.98011 | 4236 ft | 0 kts | 354° |
| 2026-05-07 16:17 | 40.78536 | -111.98011 | 4236 ft | 1 kts | 357° |
| 2026-05-07 16:17 | 40.78545 | -111.98012 | 4236 ft | 0 kts | 355° |